Time;durP1;ratioP1;P1;durP2;ratioP2;P2;SDS_P1;SDS_P2;PMS_P1;PMS_P2;Temp;Humidity;BMP_temperature;BMP_pressure;BME280_temperature;BME280_humidity;BME280_pressure;Samples;Min_cycle;Max_cycle;Signal;HPM_P1;HPM_P2
2023/05/14 00:01:07;;;;;;;5.93;4.10;;;;;;;11.39;100.00;101140.84;5071126;28;20067;-75
2023/05/14 00:03:33;;;;;;;5.80;4.43;;;;;;;10.99;100.00;101118.38;5070903;28;20090;-75
2023/05/14 00:05:58;;;;;;;9.27;4.75;;;;;;;11.74;100.00;101189.63;5072635;28;20043;-76
2023/05/14 00:08:24;;;;;;;6.30;4.68;;;;;;;11.28;100.00;101194.41;5075676;28;20104;-76
2023/05/14 00:10:49;;;;;;;5.38;4.57;;;;;;;11.04;100.00;101153.94;5074704;28;20033;-74
2023/05/14 00:13:15;;;;;;;7.05;4.30;;;;;;;10.65;100.00;101142.50;5075194;28;20023;-76
2023/05/14 00:15:40;;;;;;;6.63;4.35;;;;;;;11.46;100.00;101199.31;5057700;28;20475;-75
2023/05/14 00:18:06;;;;;;;7.13;4.50;;;;;;;11.21;100.00;101196.19;5075115;28;20021;-75
2023/05/14 00:20:31;;;;;;;8.63;4.70;;;;;;;10.99;100.00;101215.06;5057144;28;20533;-75
2023/05/14 00:22:57;;;;;;;6.80;4.38;;;;;;;10.96;100.00;101227.84;5074428;28;20036;-75
2023/05/14 00:25:22;;;;;;;5.72;4.18;;;;;;;10.94;100.00;101232.09;5074718;28;20042;-75
2023/05/14 00:27:47;;;;;;;7.30;4.40;;;;;;;10.90;100.00;101191.41;5074178;28;20048;-74
2023/05/14 00:30:13;;;;;;;6.72;4.10;;;;;;;10.88;100.00;101183.81;5056741;28;20041;-75
2023/05/14 00:32:38;;;;;;;7.40;4.15;;;;;;;11.23;100.00;101226.72;5055903;28;20029;-75
2023/05/14 00:35:04;;;;;;;8.45;4.28;;;;;;;11.08;100.00;101212.44;5073678;28;20097;-75
2023/05/14 00:37:30;;;;;;;5.15;3.88;;;;;;;10.74;100.00;101210.22;5073751;28;20119;-75
2023/05/14 00:39:55;;;;;;;5.97;4.45;;;;;;;11.23;100.00;101235.19;5056030;28;20078;-75
2023/05/14 00:42:21;;;;;;;7.55;4.38;;;;;;;11.22;100.00;101217.38;5074346;28;20036;-75
2023/05/14 00:44:46;;;;;;;5.80;4.50;;;;;;;10.95;100.00;101189.69;5074569;28;20036;-76
2023/05/14 00:47:12;;;;;;;6.22;4.40;;;;;;;11.40;100.00;101229.94;5056805;28;20036;-75
2023/05/14 00:49:39;;;;;;;7.50;4.10;;;;;;;11.71;100.00;101203.25;5074685;28;20033;-76
2023/05/14 00:52:05;;;;;;;5.78;3.75;;;;;;;11.23;100.00;101191.09;5075567;28;20025;-76
2023/05/14 00:54:31;;;;;;;6.15;4.30;;;;;;;11.18;100.00;101180.09;5056262;28;20562;-76
2023/05/14 00:56:58;;;;;;;6.90;4.55;;;;;;;11.24;100.00;101205.50;5056182;28;20049;-75
2023/05/14 00:59:24;;;;;;;5.50;4.15;;;;;;;11.05;100.00;101170.94;5074325;28;20174;-76
2023/05/14 01:01:50;;;;;;;7.38;4.30;;;;;;;11.53;100.00;101193.25;5056997;28;20035;-76
2023/05/14 01:04:15;;;;;;;5.57;4.03;;;;;;;11.70;100.00;101203.28;5074323;28;20028;-76
2023/05/14 01:07:07;;;;;;;6.90;4.18;;;;;;;11.90;100.00;101193.66;5055606;28;20035;-75
2023/05/14 01:09:45;;;;;;;4.95;4.05;;;;;;;11.31;100.00;101133.25;5046705;28;20033;-76
2023/05/14 01:12:27;;;;;;;6.90;4.40;;;;;;;11.43;100.00;101119.56;5073962;28;20037;-76
2023/05/14 01:15:08;;;;;;;5.10;3.90;;;;;;;11.71;100.00;101187.97;5073881;28;20040;-74
2023/05/14 01:17:40;;;;;;;7.32;4.53;;;;;;;11.73;100.00;101183.69;5051177;28;20028;-76
2023/05/14 01:20:06;;;;;;;;;;;;;;;11.71;100.00;101185.41;5073549;28;20123;-75
2023/05/14 01:22:31;;;;;;;7.28;4.65;;;;;;;11.22;100.00;101110.47;5056377;28;20061;-75
2023/05/14 01:24:57;;;;;;;6.57;5.07;;;;;;;11.52;100.00;101165.25;5073162;28;20055;-75
2023/05/14 01:27:41;;;;;;;7.65;4.20;;;;;;;11.60;100.00;101189.78;5073521;28;20105;-75
2023/05/14 01:30:21;;;;;;;6.82;5.13;;;;;;;11.57;100.00;101174.53;5073626;28;20028;-75
2023/05/14 01:32:50;;;;;;;5.80;4.45;;;;;;;11.15;100.00;101121.59;5073562;28;20035;-75
2023/05/14 01:35:16;;;;;;;7.97;4.68;;;;;;;11.93;100.00;101188.50;5055598;28;20040;-76
2023/05/14 01:37:43;;;;;;;7.07;4.60;;;;;;;11.54;100.00;101179.69;5073067;28;20036;-75
2023/05/14 01:40:10;;;;;;;8.57;4.95;;;;;;;11.78;100.00;101184.50;5055243;28;20125;-74
2023/05/14 01:42:37;;;;;;;7.82;5.05;;;;;;;11.47;100.00;101088.09;5072548;28;20466;-75
2023/05/14 01:45:03;;;;;;;6.45;4.78;;;;;;;11.50;100.00;101114.38;5073280;28;20062;-76
2023/05/14 01:47:28;;;;;;;7.70;5.22;;;;;;;11.17;100.00;101076.63;5072876;28;20032;-74
2023/05/14 01:49:54;;;;;;;6.82;4.88;;;;;;;12.15;100.00;101184.78;5054941;28;20674;-75
2023/05/14 01:52:20;;;;;;;5.43;4.63;;;;;;;11.96;100.00;101166.38;5071469;28;20039;-75
2023/05/14 01:54:46;;;;;;;7.95;4.93;;;;;;;12.25;100.00;101168.50;5073064;28;20048;-75
2023/05/14 01:57:12;;;;;;;8.23;4.93;;;;;;;12.11;100.00;101109.22;5072124;28;20057;-74
2023/05/14 01:59:37;;;;;;;6.53;4.32;;;;;;;12.41;100.00;101143.59;5054983;28;20039;-75
2023/05/14 02:02:02;;;;;;;5.80;3.80;;;;;;;12.06;100.00;101065.97;5073020;28;20044;-74
2023/05/14 02:04:28;;;;;;;6.03;4.32;;;;;;;12.41;100.00;101111.28;5072156;28;20056;-74
2023/05/14 02:06:55;;;;;;;8.60;4.28;;;;;;;12.60;100.00;101099.03;5072450;28;20024;-75
2023/05/14 02:09:21;;;;;;;6.22;4.10;;;;;;;12.10;100.00;101074.44;5072815;28;20443;-75
2023/05/14 02:11:46;;;;;;;8.93;4.55;;;;;;;11.94;100.00;101062.78;5055188;28;20056;-75
2023/05/14 02:14:12;;;;;;;9.38;4.90;;;;;;;11.98;100.00;101098.38;5072783;28;20029;-75
2023/05/14 02:16:37;;;;;;;7.00;4.40;;;;;;;11.61;100.00;101033.53;5072835;28;20043;-75
2023/05/14 02:19:02;;;;;;;7.18;4.32;;;;;;;12.22;100.00;101135.41;5072417;28;20082;-75
2023/05/14 02:21:28;;;;;;;7.35;4.38;;;;;;;12.11;100.00;101138.13;5073151;28;20115;-75
2023/05/14 02:23:54;;;;;;;7.28;4.00;;;;;;;11.41;100.00;101038.06;5071798;28;20496;-75
2023/05/14 02:26:20;;;;;;;6.05;4.20;;;;;;;11.78;100.00;101085.13;5072248;28;20103;-75
2023/05/14 02:28:45;;;;;;;8.73;4.25;;;;;;;11.61;100.00;101097.22;5071735;28;20124;-75
2023/05/14 02:31:11;;;;;;;6.90;4.30;;;;;;;12.04;100.00;101159.44;5072230;28;20044;-75
2023/05/14 02:33:36;;;;;;;6.38;4.25;;;;;;;11.35;100.00;101115.41;5072197;28;20388;-75
2023/05/14 02:36:02;;;;;;;5.43;4.07;;;;;;;11.86;100.00;101175.03;5072223;28;20033;-75
2023/05/14 02:38:27;;;;;;;6.38;4.45;;;;;;;11.58;100.00;101158.41;5071953;28;20035;-74
2023/05/14 02:40:53;;;;;;;8.15;4.20;;;;;;;10.86;100.00;101080.38;5071314;28;20491;-74
2023/05/14 02:43:18;;;;;;;7.43;4.43;;;;;;;11.63;100.00;101220.31;5053533;28;20104;-74
2023/05/14 02:45:43;;;;;;;8.30;4.30;;;;;;;11.50;100.00;101228.13;5071449;28;20024;-74
2023/05/14 02:48:09;;;;;;;6.38;4.30;;;;;;;11.76;100.00;101241.41;5070869;28;20032;-74
2023/05/14 02:50:34;;;;;;;6.15;4.72;;;;;;;11.30;100.00;101168.09;5071095;28;20025;-75
2023/05/14 02:53:00;;;;;;;7.50;4.80;;;;;;;11.23;100.00;101188.53;5071048;28;20161;-74
2023/05/14 02:55:26;;;;;;;8.20;4.80;;;;;;;11.51;100.00;101273.94;5071499;28;20115;-74
2023/05/14 02:57:53;;;;;;;6.80;4.43;;;;;;;11.50;100.00;101279.91;5053664;28;20065;-74
2023/05/14 03:00:18;;;;;;;7.50;5.32;;;;;;;11.35;100.00;101282.59;5071431;28;20055;-73
2023/05/14 03:02:44;;;;;;;6.65;5.00;;;;;;;11.11;100.00;101259.94;5070978;28;20045;-74
2023/05/14 03:05:09;;;;;;;11.50;5.85;;;;;;;11.44;100.00;101291.84;5071559;28;20060;-74
2023/05/14 03:07:35;;;;;;;7.60;4.78;;;;;;;11.10;100.00;101274.34;5071451;28;20554;-74
2023/05/14 03:10:00;;;;;;;8.70;5.70;;;;;;;11.21;100.00;101308.19;5071368;28;20035;-75
2023/05/14 03:12:26;;;;;;;6.82;5.32;;;;;;;11.05;100.00;101333.78;5054310;28;20029;-75
2023/05/14 03:14:51;;;;;;;8.05;5.18;;;;;;;11.26;100.00;101282.69;5071498;28;20490;-74
2023/05/14 03:17:16;;;;;;;7.28;4.93;;;;;;;10.86;100.00;101283.88;5053645;28;20033;-74
2023/05/14 03:19:42;;;;;;;6.22;5.00;;;;;;;10.98;100.00;101296.50;5053384;28;20048;-75
2023/05/14 03:22:07;;;;;;;7.13;5.25;;;;;;;10.93;100.00;101286.41;5053247;28;20031;-74
2023/05/14 03:24:33;;;;;;;5.88;4.85;;;;;;;11.22;100.00;101294.59;5070995;28;20032;-74
2023/05/14 03:26:59;;;;;;;7.60;5.57;;;;;;;11.18;100.00;101277.69;5053287;28;20033;-74
2023/05/14 03:29:24;;;;;;;8.35;5.22;;;;;;;11.49;100.00;101280.75;5071903;28;20475;-73
2023/05/14 03:31:50;;;;;;;6.82;4.82;;;;;;;11.15;100.00;101269.22;5053650;28;20032;-74
2023/05/14 03:34:16;;;;;;;8.38;5.22;;;;;;;11.64;100.00;101334.09;5053773;28;20024;-73
2023/05/14 03:36:41;;;;;;;8.48;5.22;;;;;;;11.55;100.00;101326.53;5053989;28;20032;-74
2023/05/14 03:39:08;;;;;;;8.43;5.03;;;;;;;11.37;100.00;101278.31;5071274;28;20032;-74
2023/05/14 03:41:33;;;;;;;6.25;4.95;;;;;;;11.94;100.00;101315.91;5055333;28;20051;-75
2023/05/14 03:43:59;;;;;;;7.25;5.05;;;;;;;11.59;100.00;101261.94;5075286;28;20388;-75
2023/05/14 03:46:24;;;;;;;7.55;5.32;;;;;;;11.94;100.00;101298.06;5056671;28;20042;-74
2023/05/14 03:48:50;;;;;;;9.10;5.07;;;;;;;11.58;100.00;101261.97;5057098;28;20398;-74
2023/05/14 03:51:15;;;;;;;8.23;5.10;;;;;;;11.92;100.00;101293.88;5056619;28;20502;-75
2023/05/14 03:53:40;;;;;;;7.68;5.38;;;;;;;11.83;100.00;101269.34;5056721;28;20032;-75
2023/05/14 03:56:06;;;;;;;6.78;5.40;;;;;;;11.68;100.00;101218.59;5055970;28;20052;-75
2023/05/14 03:58:31;;;;;;;7.57;5.00;;;;;;;11.74;100.00;101272.00;5056885;28;20032;-75
2023/05/14 04:00:57;;;;;;;7.25;5.38;;;;;;;11.79;100.00;101266.84;5075241;28;20032;-74
2023/05/14 04:03:22;;;;;;;7.90;5.20;;;;;;;12.25;100.00;101284.94;5074793;28;20476;-75
2023/05/14 04:05:48;;;;;;;6.95;5.43;;;;;;;12.08;100.00;101273.25;5074577;28;20036;-75
2023/05/14 04:08:13;;;;;;;9.23;5.43;;;;;;;12.11;100.00;101277.47;5056962;28;20391;-75
2023/05/14 04:10:38;;;;;;;9.75;5.10;;;;;;;11.70;100.00;101242.34;5074793;28;20039;-75
2023/05/14 04:13:04;;;;;;;8.50;5.55;;;;;;;12.11;100.00;101292.78;5056930;28;20025;-74
2023/05/14 04:15:29;;;;;;;7.32;5.20;;;;;;;12.05;100.00;101237.63;5075368;28;20105;-75
2023/05/14 04:17:55;;;;;;;7.75;5.25;;;;;;;11.95;100.00;101306.56;5057040;28;20029;-76
2023/05/14 04:20:20;;;;;;;10.13;6.18;;;;;;;11.84;100.00;101299.06;5074801;28;20029;-75
2023/05/14 04:22:46;;;;;;;8.70;5.57;;;;;;;12.18;100.00;101325.00;5075155;28;20383;-75
2023/05/14 04:25:11;;;;;;;7.60;6.07;;;;;;;12.11;100.00;101287.69;5056592;28;20032;-75
2023/05/14 04:27:36;;;;;;;7.85;5.63;;;;;;;11.83;100.00;101233.66;5074133;28;20032;-75
2023/05/14 04:30:02;;;;;;;9.88;5.80;;;;;;;12.29;100.00;101259.38;5057441;28;20521;-76
2023/05/14 04:32:29;;;;;;;7.65;6.10;;;;;;;12.78;100.00;101274.78;5057215;28;20028;-76
2023/05/14 04:34:54;;;;;;;8.27;6.03;;;;;;;12.82;100.00;101282.38;5057082;28;20119;-76
2023/05/14 04:37:20;;;;;;;10.50;6.07;;;;;;;13.01;100.00;101254.84;5056806;28;20117;-76
2023/05/14 04:39:45;;;;;;;8.80;6.32;;;;;;;12.98;100.00;101216.56;5074452;28;20028;-76
2023/05/14 04:42:11;;;;;;;8.20;5.93;;;;;;;13.09;100.00;101217.28;5074789;28;20029;-76
2023/05/14 04:44:36;;;;;;;7.53;5.22;;;;;;;13.12;100.00;101229.97;5074446;28;20031;-75
2023/05/14 04:47:02;;;;;;;9.07;5.53;;;;;;;12.92;100.00;101227.75;5073653;28;20034;-76
2023/05/14 04:49:28;;;;;;;9.55;5.28;;;;;;;13.05;100.00;101234.34;5074580;28;20020;-75
2023/05/14 04:51:54;;;;;;;7.90;5.45;;;;;;;13.40;100.00;101238.81;5073738;28;20536;-75
2023/05/14 04:54:19;;;;;;;7.95;5.65;;;;;;;13.50;100.00;101239.47;5055679;28;20411;-75
2023/05/14 04:56:45;;;;;;;8.07;6.20;;;;;;;13.54;100.00;101247.06;5073939;28;20106;-76
2023/05/14 04:59:10;;;;;;;6.88;5.40;;;;;;;13.84;100.00;101228.50;5055825;28;20044;-75
2023/05/14 05:01:35;;;;;;;8.77;5.38;;;;;;;13.76;100.00;101227.88;5074380;28;20028;-76
2023/05/14 05:04:01;;;;;;;8.73;5.03;;;;;;;13.41;100.00;101165.56;5056329;28;20482;-76
2023/05/14 05:06:28;;;;;;;8.07;6.10;;;;;;;13.52;100.00;101181.50;5056353;28;20032;-75
2023/05/14 05:08:54;;;;;;;8.68;5.80;;;;;;;13.98;100.00;101166.03;5073280;28;20033;-76
2023/05/14 05:11:20;;;;;;;9.15;5.70;;;;;;;14.43;100.00;101211.03;5074753;28;20020;-76
2023/05/14 05:13:45;;;;;;;8.40;5.30;;;;;;;14.80;100.00;101195.63;5073547;28;20025;-75
2023/05/14 05:16:11;;;;;;;7.28;5.05;;;;;;;14.32;100.00;101123.47;5073837;28;20035;-75
2023/05/14 05:18:36;;;;;;;6.63;4.97;;;;;;;14.22;100.00;101122.78;5073103;28;20024;-75
2023/05/14 05:21:02;;;;;;;11.65;5.70;;;;;;;14.58;100.00;101115.94;5055567;28;20025;-75
2023/05/14 05:23:27;;;;;;;7.55;5.07;;;;;;;14.65;100.00;101114.91;5073000;28;20552;-75
2023/05/14 05:25:53;;;;;;;7.35;5.00;;;;;;;14.46;100.00;101047.19;5055228;28;20036;-75
2023/05/14 05:28:18;;;;;;;9.52;4.90;;;;;;;15.56;100.00;101115.75;5055847;28;20423;-75
2023/05/14 05:30:46;;;;;;;9.43;4.93;;;;;;;15.02;100.00;101036.19;5073011;28;20487;-74
2023/05/14 05:33:12;;;;;;;9.75;5.10;;;;;;;15.85;100.00;101058.44;5055360;28;20900;-75
2023/05/14 05:35:38;;;;;;;6.38;4.55;;;;;;;16.13;100.00;101069.47;5055806;28;20097;-76
2023/05/14 05:38:03;;;;;;;8.35;4.40;;;;;;;15.20;100.00;101060.44;5073510;28;20029;-76
2023/05/14 05:40:29;;;;;;;8.38;4.90;;;;;;;15.39;100.00;101069.28;5073635;28;20033;-75
2023/05/14 05:42:54;;;;;;;7.75;4.80;;;;;;;14.97;100.00;101020.16;5073432;28;20051;-76
2023/05/14 05:45:19;;;;;;;6.57;4.28;;;;;;;15.58;100.00;101030.25;5073937;28;20029;-76
2023/05/14 05:47:46;;;;;;;7.00;4.28;;;;;;;15.64;100.00;101059.97;5073577;28;20041;-76
2023/05/14 05:50:11;;;;;;;6.65;4.80;;;;;;;15.22;100.00;100980.09;5073406;28;20025;-76
2023/05/14 05:52:38;;;;;;;8.70;4.75;;;;;;;16.31;100.00;101061.16;5073429;28;20552;-75
2023/05/14 05:55:04;;;;;;;12.57;5.70;;;;;;;15.60;100.00;101079.75;5073568;28;20025;-76
2023/05/14 05:57:29;;;;;;;9.02;4.90;;;;;;;15.34;100.00;101035.25;5054857;28;20056;-76
2023/05/14 05:59:55;;;;;;;7.20;5.50;;;;;;;15.55;100.00;101091.84;5072713;28;20052;-74
2023/05/14 06:02:20;;;;;;;8.80;4.75;;;;;;;15.83;100.00;101089.25;5055466;28;20178;-76
2023/05/14 06:04:45;;;;;;;6.43;4.70;;;;;;;15.89;100.00;101083.09;5072914;28;20036;-76
2023/05/14 06:07:11;;;;;;;6.82;3.88;;;;;;;16.04;100.00;101044.13;5072811;28;20044;-76
2023/05/14 06:09:36;;;;;;;9.05;5.13;;;;;;;15.88;100.00;101081.44;5072734;28;20020;-75
2023/05/14 06:12:02;;;;;;;9.38;4.30;;;;;;;15.87;100.00;101080.59;5055170;28;20024;-75
2023/05/14 06:14:27;;;;;;;6.43;3.60;;;;;;;16.11;100.00;101043.88;5073468;28;20028;-74
2023/05/14 06:16:53;;;;;;;6.22;3.60;;;;;;;15.69;100.00;100995.72;5055129;28;20123;-76
2023/05/14 06:19:18;;;;;;;6.03;3.50;;;;;;;15.73;100.00;100966.53;5072314;28;20505;-76
2023/05/14 06:21:43;;;;;;;4.53;3.00;;;;;;;16.18;100.00;101013.72;5071816;28;20479;-76
2023/05/14 06:24:09;;;;;;;5.90;3.40;;;;;;;16.20;100.00;100973.47;5072424;28;20112;-75
2023/05/14 06:26:35;;;;;;;5.13;3.28;;;;;;;15.91;100.00;100978.72;5071819;28;20028;-75
2023/05/14 06:29:00;;;;;;;5.50;3.60;;;;;;;15.71;100.00;100979.38;5071843;28;20122;-76
2023/05/14 06:31:25;;;;;;;5.10;3.17;;;;;;;15.70;100.00;101018.75;5072101;28;20101;-75
2023/05/14 06:33:51;;;;;;;6.53;3.53;;;;;;;15.91;100.00;101020.59;5054538;28;20343;-76
2023/05/14 06:36:16;;;;;;;7.70;3.10;;;;;;;16.15;100.00;101017.22;5054105;28;20037;-74
2023/05/14 06:38:42;;;;;;;7.53;3.85;;;;;;;15.65;100.00;100978.78;5072305;28;20043;-75
2023/05/14 06:41:07;;;;;;;7.00;3.55;;;;;;;16.05;100.00;101028.69;5072545;28;20106;-76
2023/05/14 06:43:32;;;;;;;5.10;3.45;;;;;;;15.97;100.00;100979.38;5072185;28;20075;-76
2023/05/14 06:45:58;;;;;;;5.15;3.50;;;;;;;15.71;100.00;100963.19;5072196;28;20052;-75
2023/05/14 06:48:26;;;;;;;7.20;3.35;;;;;;;15.84;100.00;100983.25;5072160;28;20062;-75
2023/05/14 06:50:51;;;;;;;6.63;3.80;;;;;;;16.16;100.00;101003.50;5054359;28;20025;-76
2023/05/14 06:53:17;;;;;;;6.93;3.55;;;;;;;16.16;100.00;100987.28;5071769;28;20066;-75
2023/05/14 06:55:42;;;;;;;4.55;3.60;;;;;;;15.79;100.00;100991.94;5071885;28;20123;-75
2023/05/14 06:58:08;;;;;;;6.20;3.38;;;;;;;16.25;100.00;101053.66;5071727;28;20040;-74
2023/05/14 07:00:34;;;;;;;6.40;3.25;;;;;;;16.25;100.00;101066.50;5071472;28;20086;-75
2023/05/14 07:02:59;;;;;;;5.05;3.40;;;;;;;16.18;100.00;101063.28;5071607;28;20447;-71
2023/05/14 07:05:25;;;;;;;6.20;3.45;;;;;;;16.57;100.00;101066.28;5071799;28;20027;-78
2023/05/14 07:07:50;;;;;;;7.88;3.08;;;;;;;16.38;100.00;101049.81;5071853;28;20032;-76
2023/05/14 07:10:16;;;;;;;5.22;2.97;;;;;;;16.57;100.00;101019.22;5072108;28;20093;-77
2023/05/14 07:12:41;;;;;;;4.45;3.00;;;;;;;17.03;100.00;100999.50;5072312;28;20476;-77
2023/05/14 07:15:08;;;;;;;6.10;3.20;;;;;;;16.55;100.00;100987.63;5053181;28;20024;-77
2023/05/14 07:17:33;;;;;;;5.85;3.50;;;;;;;17.16;100.00;101021.25;5071234;28;20032;-76
2023/05/14 07:19:59;;;;;;;6.35;2.90;;;;;;;17.13;100.00;101011.06;5054163;28;20407;-77
2023/05/14 07:22:24;;;;;;;4.57;2.92;;;;;;;16.89;100.00;100996.63;5072288;28;20020;-78
2023/05/14 07:24:49;;;;;;;7.25;5.30;;;;;;;17.20;100.00;100996.25;5072781;28;20025;-76
2023/05/14 07:27:16;;;;;;;11.68;7.13;;;;;;;16.67;100.00;100944.38;5054553;28;20479;-76
2023/05/14 07:29:41;;;;;;;7.65;4.82;;;;;;;16.80;100.00;100972.97;5054154;28;20035;-76
2023/05/14 07:32:07;;;;;;;6.70;3.63;;;;;;;17.26;100.00;101024.31;5072650;28;20025;-76
2023/05/14 07:34:32;;;;;;;5.60;2.92;;;;;;;16.63;100.00;100963.34;5053980;28;20467;-76
2023/05/14 07:36:58;;;;;;;3.83;2.65;;;;;;;16.74;100.00;100975.81;5072349;28;20086;-77
2023/05/14 07:39:23;;;;;;;4.38;2.95;;;;;;;16.91;100.00;100958.84;5071698;28;20059;-77
2023/05/14 07:41:50;;;;;;;5.65;3.50;;;;;;;16.65;100.00;100925.59;5071655;28;20024;-77
2023/05/14 07:44:15;;;;;;;4.40;3.47;;;;;;;16.95;100.00;101021.22;5053538;28;20506;-77
2023/05/14 07:46:41;;;;;;;8.15;3.88;;;;;;;17.20;100.00;101027.09;5051906;28;20025;-76
2023/05/14 07:49:06;;;;;;;5.28;3.22;;;;;;;17.12;100.00;101001.72;5052662;28;20117;-75
2023/05/14 07:51:32;;;;;;;7.25;4.07;;;;;;;17.56;100.00;101009.44;5051610;28;20040;-75
2023/05/14 07:53:57;;;;;;;10.38;5.10;;;;;;;17.06;100.00;100953.13;5051672;28;20024;-76
2023/05/14 07:56:23;;;;;;;6.10;3.38;;;;;;;17.25;100.00;101020.06;5052029;28;20064;-76
2023/05/14 07:58:50;;;;;;;4.85;2.90;;;;;;;16.61;100.00;100918.06;5051611;28;20045;-76
2023/05/14 08:01:15;;;;;;;4.78;3.03;;;;;;;17.15;100.00;100999.00;5051814;28;20086;-76
2023/05/14 08:03:41;;;;;;;7.78;4.35;;;;;;;17.04;100.00;100952.34;5051942;28;20033;-77
2023/05/14 08:06:06;;;;;;;10.80;4.40;;;;;;;16.95;100.00;100916.75;5051350;28;20025;-76
2023/05/14 08:08:31;;;;;;;6.75;3.53;;;;;;;17.63;100.00;101005.75;5051507;28;20041;-77
2023/05/14 08:10:57;;;;;;;5.32;3.33;;;;;;;17.87;100.00;101008.13;5050739;28;20088;-77
2023/05/14 08:13:22;;;;;;;6.32;3.42;;;;;;;17.59;100.00;100994.72;5051435;28;20625;-76
2023/05/14 08:15:48;;;;;;;5.50;2.70;;;;;;;17.21;100.00;100957.66;5034129;28;20036;-75
2023/05/14 08:18:13;;;;;;;5.88;3.13;;;;;;;17.38;100.00;100948.44;5034242;28;20078;-77
2023/05/14 08:20:39;;;;;;;5.03;3.30;;;;;;;17.80;100.00;101004.16;5051185;28;20052;-76
2023/05/14 08:23:06;;;;;;;6.25;3.35;;;;;;;17.67;100.00;100945.56;5051547;28;20115;-76
2023/05/14 08:25:31;;;;;;;4.85;3.42;;;;;;;18.08;100.00;100983.25;5051357;28;20083;-77
2023/05/14 08:27:58;;;;;;;6.63;3.80;;;;;;;18.36;100.00;100978.56;5053866;28;20025;-76
2023/05/14 08:30:28;;;;;;;6.68;3.50;;;;;;;18.49;100.00;100986.63;5055233;28;20051;-76
2023/05/14 08:32:53;;;;;;;4.30;2.90;;;;;;;17.87;100.00;100995.25;5054501;28;20029;-77
2023/05/14 08:35:19;;;;;;;4.13;2.88;;;;;;;18.48;100.00;100988.34;5054090;28;20582;-76
2023/05/14 08:37:44;;;;;;;8.40;4.97;;;;;;;18.13;100.00;100997.59;5036921;28;20040;-76
2023/05/14 08:40:11;;;;;;;5.65;3.80;;;;;;;18.42;100.00;100960.25;5055600;28;20044;-77
2023/05/14 08:42:40;;;;;;;4.90;3.22;;;;;;;18.15;100.00;100994.94;5055289;28;20055;-77
2023/05/14 08:45:19;;;;;;;5.55;3.00;;;;;;;18.05;100.00;100963.63;5055050;28;20040;-76
2023/05/14 08:47:49;;;;;;;4.07;2.50;;;;;;;17.57;100.00;100947.66;5054944;28;20096;-77
2023/05/14 08:50:15;;;;;;;6.60;2.65;;;;;;;17.48;100.00;100931.72;5037368;28;20475;-76
2023/05/14 08:52:41;;;;;;;6.18;2.80;;;;;;;17.79;100.00;100930.44;5055438;28;20033;-76
2023/05/14 08:55:07;;;;;;;4.38;3.10;;;;;;;17.57;100.00;100933.97;5054921;28;20031;-76
2023/05/14 08:57:33;;;;;;;4.32;2.72;;;;;;;17.90;100.00;100992.59;5036394;28;20515;-76
2023/05/14 09:00:00;;;;;;;3.53;2.70;;;;;;;17.58;100.00;100949.34;5054571;28;20407;-75
2023/05/14 09:02:30;;;;;;;5.25;2.40;;;;;;;17.55;100.00;100946.88;5054077;28;20025;-76
2023/05/14 09:04:57;;;;;;;5.97;2.83;;;;;;;17.38;100.00;100940.72;5054876;28;20487;-77
2023/05/14 09:07:23;;;;;;;5.03;3.03;;;;;;;17.89;100.00;100979.75;5054373;28;20037;-76
2023/05/14 09:09:50;;;;;;;4.78;2.80;;;;;;;17.97;100.00;101011.16;5053846;28;20135;-76
2023/05/14 09:12:15;;;;;;;6.05;2.97;;;;;;;17.98;100.00;101013.69;5054505;28;20021;-77
2023/05/14 09:14:41;;;;;;;4.35;2.40;;;;;;;17.44;100.00;100923.31;5036377;28;20021;-74
2023/05/14 09:17:07;;;;;;;5.75;3.00;;;;;;;17.86;100.00;101003.06;5054132;28;20068;-74
2023/05/14 09:19:32;;;;;;;3.53;2.45;;;;;;;17.77;100.00;101019.69;5036505;28;20419;-75
2023/05/14 09:21:58;;;;;;;7.97;3.13;;;;;;;17.84;100.00;100976.56;5054107;28;20040;-76
2023/05/14 09:24:29;;;;;;;4.20;2.60;;;;;;;17.94;100.00;101029.31;5054425;28;20029;-75
2023/05/14 09:26:56;;;;;;;3.35;2.63;;;;;;;17.72;100.00;100977.06;5054375;28;20029;-75
2023/05/14 09:29:27;;;;;;;5.22;3.10;;;;;;;17.70;100.00;100973.72;5036394;28;20582;-75
2023/05/14 09:31:55;;;;;;;3.58;2.50;;;;;;;17.80;100.00;101023.88;5054136;28;20033;-75
2023/05/14 09:34:33;;;;;;;5.10;2.20;;;;;;;17.59;100.00;101022.19;5054081;28;20124;-75
2023/05/14 09:37:02;;;;;;;5.72;3.08;;;;;;;17.81;100.00;101030.69;5054234;28;20025;-75
2023/05/14 09:39:29;;;;;;;4.75;3.22;;;;;;;17.76;100.00;101022.34;5054079;28;20415;-76
2023/05/14 09:41:55;;;;;;;4.72;2.67;;;;;;;17.52;100.00;100972.72;5054251;28;20029;-76
2023/05/14 09:44:21;;;;;;;4.60;2.67;;;;;;;17.76;100.00;101018.03;5053849;28;20025;-76
2023/05/14 09:46:47;;;;;;;6.15;4.15;;;;;;;17.78;100.00;101020.53;5053572;28;20102;-76
2023/05/14 09:49:13;;;;;;;6.30;3.00;;;;;;;17.88;100.00;101021.84;5053928;28;20063;-77
2023/05/14 09:51:39;;;;;;;4.30;2.72;;;;;;;17.86;100.00;101018.50;5053908;28;20115;-76
2023/05/14 09:54:05;;;;;;;4.90;2.70;;;;;;;17.87;100.00;101008.13;5054030;28;20116;-77
2023/05/14 09:56:32;;;;;;;3.92;2.58;;;;;;;17.69;100.00;101006.31;5053071;28;20052;-77
2023/05/14 09:58:57;;;;;;;3.65;2.42;;;;;;;17.51;100.00;100962.50;5035545;28;20162;-76
2023/05/14 10:01:24;;;;;;;3.47;2.50;;;;;;;17.54;100.00;100964.94;5035499;28;20037;-76
2023/05/14 10:03:50;;;;;;;4.15;2.60;;;;;;;17.97;100.00;101001.69;5035725;28;20396;-76
2023/05/14 10:06:18;;;;;;;5.50;4.00;;;;;;;17.67;100.00;100961.81;5052578;28;20491;-75
2023/05/14 10:08:44;;;;;;;4.35;3.60;;;;;;;17.58;100.00;101005.06;5035611;28;20123;-76
2023/05/14 10:11:19;;;;;;;3.50;2.80;;;;;;;17.42;100.00;101002.25;5035621;28;20025;-75
2023/05/14 10:13:54;;;;;;;5.38;4.00;;;;;;;17.39;100.00;100962.97;5053478;28;20543;-76
2023/05/14 10:16:28;;;;;;;6.15;4.18;;;;;;;17.46;100.00;100941.25;5052728;28;20127;-75
2023/05/14 10:18:59;;;;;;;5.28;3.17;;;;;;;17.54;100.00;100921.22;5052930;28;20120;-77
2023/05/14 10:21:28;;;;;;;4.30;2.50;;;;;;;17.98;100.00;100990.53;5053028;28;20032;-76
2023/05/14 10:23:54;;;;;;;4.55;2.78;;;;;;;17.75;100.00;100956.34;5052597;28;20047;-76
2023/05/14 10:26:20;;;;;;;6.10;3.67;;;;;;;17.61;100.00;100946.63;5034385;28;20029;-76
2023/05/14 10:28:46;;;;;;;3.38;2.28;;;;;;;17.73;100.00;100951.25;5052616;28;20036;-76
2023/05/14 10:31:12;;;;;;;4.88;2.80;;;;;;;17.82;100.00;100976.63;5052683;28;20396;-76
2023/05/14 10:33:51;;;;;;;4.32;3.60;;;;;;;17.25;100.00;100901.84;5052419;28;20044;-76
2023/05/14 10:36:19;;;;;;;5.60;3.30;;;;;;;18.14;100.00;100970.13;5052504;28;20033;-76
2023/05/14 10:38:46;;;;;;;4.65;3.05;;;;;;;18.49;100.00;100963.44;5052994;28;20141;-75
2023/05/14 10:41:16;;;;;;;4.70;3.08;;;;;;;18.26;100.00;100904.38;5052988;28;20518;-76
2023/05/14 10:43:42;;;;;;;5.20;3.03;;;;;;;18.14;100.00;100914.28;5052742;28;20029;-76
2023/05/14 10:46:09;;;;;;;3.80;3.00;;;;;;;18.42;100.00;100947.38;5052275;28;20032;-76
2023/05/14 10:48:39;;;;;;;3.58;2.60;;;;;;;18.28;100.00;100915.44;5051995;28;20029;-75
2023/05/14 10:51:08;;;;;;;4.18;2.78;;;;;;;18.38;100.00;100945.84;5051069;28;20059;-76
2023/05/14 10:53:38;;;;;;;6.90;3.08;;;;;;;17.87;100.00;100894.06;5034591;28;20061;-76
2023/05/14 10:56:10;;;;;;;4.45;2.80;;;;;;;17.83;100.00;100865.06;5052080;28;20407;-75
2023/05/14 10:58:43;;;;;;;6.15;3.85;;;;;;;17.98;100.00;100890.16;5052019;28;20080;-76
2023/05/14 11:01:11;;;;;;;8.50;4.03;;;;;;;18.27;100.00;100935.19;5051807;28;20029;-75
2023/05/14 11:03:40;;;;;;;4.28;3.13;;;;;;;18.37;100.00;100925.31;5034231;28;20388;-75
2023/05/14 11:06:07;;;;;;;7.38;4.32;;;;;;;18.71;100.00;100923.78;5034465;28;20087;-75
2023/05/14 11:08:32;;;;;;;6.50;3.78;;;;;;;18.49;100.00;100924.81;5051764;28;20100;-75
2023/05/14 11:10:58;;;;;;;5.03;3.55;;;;;;;17.75;100.00;100840.56;5052082;28;20057;-75
2023/05/14 11:13:25;;;;;;;6.47;3.80;;;;;;;18.08;100.00;100913.75;5033888;28;20479;-75